VIV9313 MMZH-MMSM
Flight info
| Callsign | VIV9313 |
|---|---|
| Flight time | 0h 33m |
| Altitude | 35000 |
| Route | ILENA2B ILENA UT118 KELBO KELBO1A |
| Aircraft | A320/M-SDE3FGHIRWY/LB1 |
Departure
| Time | 2026-05-06 14:36 |
|---|---|
| Airport | Ixtapa-Zihuatanejo International Airport (MMZH) |
Arrival
| Time | 2026-05-06 15:09 |
|---|---|
| Airport | Felipe Ángeles International Airport (MMSM) |
| Time | Latitude | Longitude | Altitude | Speed | Heading |
|---|---|---|---|---|---|
| 2026-05-06 14:08 | 17.60536 | -101.46344 | 19 ft | 0 kts | 359° |
| 2026-05-06 14:27 | 17.60529 | -101.46344 | 19 ft | 4 kts | 1° |
| 2026-05-06 14:28 | 17.60503 | -101.46348 | 21 ft | 4 kts | 26° |
| 2026-05-06 14:28 | 17.60485 | -101.46364 | 21 ft | 4 kts | 76° |
| 2026-05-06 14:28 | 17.60483 | -101.46377 | 21 ft | 1 kts | 91° |
| 2026-05-06 14:28 | 17.60483 | -101.46378 | 20 ft | 0 kts | 91° |
| 2026-05-06 14:32 | 17.60483 | -101.46373 | 21 ft | 4 kts | 91° |
| 2026-05-06 14:32 | 17.60474 | -101.46304 | 20 ft | 13 kts | 128° |
| 2026-05-06 14:32 | 17.60377 | -101.46279 | 20 ft | 16 kts | 164° |
| 2026-05-06 14:32 | 17.60303 | -101.46191 | 20 ft | 18 kts | 120° |
| 2026-05-06 14:33 | 17.60236 | -101.46075 | 21 ft | 20 kts | 123° |
| 2026-05-06 14:33 | 17.60159 | -101.45946 | 21 ft | 22 kts | 116° |
| 2026-05-06 14:33 | 17.60156 | -101.45784 | 23 ft | 23 kts | 89° |
| 2026-05-06 14:33 | 17.60155 | -101.45611 | 24 ft | 25 kts | 90° |
| 2026-05-06 14:34 | 17.60149 | -101.45422 | 24 ft | 27 kts | 89° |
| 2026-05-06 14:34 | 17.60161 | -101.45223 | 26 ft | 28 kts | 99° |
| 2026-05-06 14:34 | 17.60143 | -101.45027 | 27 ft | 23 kts | 86° |
| 2026-05-06 14:34 | 17.60138 | -101.44894 | 26 ft | 12 kts | 153° |
| 2026-05-06 14:35 | 17.60130 | -101.44930 | 29 ft | 0 kts | 270° |
| 2026-05-06 14:35 | 17.60132 | -101.44967 | 27 ft | 28 kts | 273° |
| 2026-05-06 14:35 | 17.60147 | -101.45513 | 24 ft | 119 kts | 271° |
| 2026-05-06 14:35 | 17.60183 | -101.46608 | 208 ft | 168 kts | 273° |
| 2026-05-06 14:36 | 17.60258 | -101.47878 | 966 ft | 181 kts | 274° |
| 2026-05-06 14:36 | 17.60361 | -101.49239 | 1858 ft | 198 kts | 273° |
| 2026-05-06 14:36 | 17.60451 | -101.50770 | 2592 ft | 223 kts | 273° |
| 2026-05-06 14:36 | 17.60554 | -101.52481 | 3364 ft | 248 kts | 273° |
| 2026-05-06 14:37 | 17.60669 | -101.54363 | 4246 ft | 267 kts | 273° |
| 2026-05-06 14:37 | 17.60986 | -101.56303 | 5345 ft | 275 kts | 291° |
| 2026-05-06 14:37 | 17.62043 | -101.57972 | 6448 ft | 279 kts | 317° |
| 2026-05-06 14:37 | 17.63722 | -101.59000 | 7477 ft | 285 kts | 343° |
| 2026-05-06 14:38 | 17.65699 | -101.59148 | 8384 ft | 289 kts | 11° |
| 2026-05-06 14:38 | 17.67538 | -101.58325 | 9104 ft | 292 kts | 39° |
| 2026-05-06 14:38 | 17.68815 | -101.56718 | 9762 ft | 295 kts | 64° |
| 2026-05-06 14:38 | 17.69557 | -101.54720 | 10159 ft | 298 kts | 71° |
| 2026-05-06 14:39 | 17.70274 | -101.52592 | 10345 ft | 321 kts | 71° |
| 2026-05-06 14:39 | 17.71038 | -101.50303 | 10480 ft | 343 kts | 71° |
| 2026-05-06 14:39 | 17.71841 | -101.47902 | 10876 ft | 353 kts | 71° |
| 2026-05-06 14:39 | 17.72667 | -101.45460 | 11457 ft | 357 kts | 71° |
| 2026-05-06 14:40 | 17.73506 | -101.43005 | 12066 ft | 359 kts | 71° |
| 2026-05-06 14:40 | 17.74355 | -101.40528 | 12691 ft | 362 kts | 71° |
| 2026-05-06 14:40 | 17.75211 | -101.38035 | 13320 ft | 364 kts | 71° |
| 2026-05-06 14:40 | 17.76069 | -101.35527 | 13903 ft | 367 kts | 72° |
| 2026-05-06 14:41 | 17.76933 | -101.32996 | 14440 ft | 370 kts | 72° |
| 2026-05-06 14:41 | 17.77805 | -101.30439 | 14965 ft | 374 kts | 71° |
| 2026-05-06 14:41 | 17.78684 | -101.27860 | 15446 ft | 378 kts | 71° |
| 2026-05-06 14:41 | 17.79572 | -101.25250 | 15939 ft | 382 kts | 71° |
| 2026-05-06 14:42 | 17.80471 | -101.22614 | 16444 ft | 385 kts | 72° |
| 2026-05-06 14:42 | 17.81377 | -101.19954 | 16918 ft | 389 kts | 72° |
| 2026-05-06 14:42 | 17.82289 | -101.17267 | 17404 ft | 393 kts | 72° |
| 2026-05-06 14:42 | 17.83210 | -101.14555 | 17903 ft | 396 kts | 72° |
| 2026-05-06 14:43 | 17.84139 | -101.11820 | 18364 ft | 400 kts | 72° |
| 2026-05-06 14:43 | 17.85078 | -101.09060 | 18765 ft | 403 kts | 72° |
| 2026-05-06 14:43 | 17.86008 | -101.06318 | 19191 ft | 406 kts | 72° |
| 2026-05-06 14:43 | 17.86971 | -101.03473 | 19641 ft | 409 kts | 72° |
| 2026-05-06 14:44 | 17.87916 | -101.00691 | 20064 ft | 412 kts | 72° |
| 2026-05-06 14:44 | 17.88895 | -100.97804 | 20500 ft | 415 kts | 73° |
| 2026-05-06 14:44 | 17.89853 | -100.94974 | 20930 ft | 418 kts | 73° |
| 2026-05-06 14:45 | 17.91812 | -100.89179 | 21770 ft | 424 kts | 73° |
| 2026-05-06 14:45 | 17.92804 | -100.86251 | 22147 ft | 427 kts | 73° |
| 2026-05-06 14:45 | 17.93803 | -100.83300 | 22566 ft | 430 kts | 73° |
| 2026-05-06 14:45 | 17.94808 | -100.80336 | 22951 ft | 433 kts | 73° |
| 2026-05-06 14:46 | 17.95821 | -100.77346 | 23354 ft | 436 kts | 73° |
| 2026-05-06 14:46 | 17.96836 | -100.74338 | 23727 ft | 439 kts | 73° |
| 2026-05-06 14:46 | 17.97981 | -100.71357 | 24002 ft | 444 kts | 66° |
| 2026-05-06 14:46 | 17.99593 | -100.68568 | 24307 ft | 450 kts | 56° |
| 2026-05-06 14:47 | 18.01626 | -100.66045 | 24605 ft | 454 kts | 50° |
| 2026-05-06 14:47 | 18.03757 | -100.63582 | 24910 ft | 457 kts | 50° |
| 2026-05-06 14:47 | 18.05899 | -100.61104 | 25214 ft | 459 kts | 50° |
| 2026-05-06 14:47 | 18.08054 | -100.58612 | 25525 ft | 461 kts | 50° |
| 2026-05-06 14:48 | 18.10214 | -100.56109 | 25829 ft | 463 kts | 50° |
| 2026-05-06 14:48 | 18.12378 | -100.53595 | 26158 ft | 465 kts | 50° |
| 2026-05-06 14:48 | 18.14546 | -100.51072 | 26445 ft | 467 kts | 50° |
| 2026-05-06 14:48 | 18.16732 | -100.48524 | 26708 ft | 470 kts | 50° |
| 2026-05-06 14:49 | 18.18929 | -100.45971 | 27019 ft | 472 kts | 49° |
| 2026-05-06 14:49 | 18.21138 | -100.43406 | 27325 ft | 474 kts | 49° |
| 2026-05-06 14:49 | 18.23356 | -100.40827 | 27637 ft | 476 kts | 49° |
| 2026-05-06 14:49 | 18.25549 | -100.38274 | 27926 ft | 478 kts | 49° |
| 2026-05-06 14:50 | 18.27783 | -100.35676 | 28220 ft | 480 kts | 49° |
| 2026-05-06 14:50 | 18.30032 | -100.33062 | 28510 ft | 482 kts | 49° |
| 2026-05-06 14:50 | 18.32287 | -100.30438 | 28804 ft | 485 kts | 49° |
| 2026-05-06 14:50 | 18.34550 | -100.27799 | 29132 ft | 487 kts | 49° |
| 2026-05-06 14:51 | 18.36821 | -100.25145 | 29443 ft | 489 kts | 49° |
| 2026-05-06 14:51 | 18.39095 | -100.22487 | 29894 ft | 488 kts | 49° |
| 2026-05-06 14:51 | 18.41364 | -100.19836 | 30310 ft | 487 kts | 48° |
| 2026-05-06 14:51 | 18.43626 | -100.17195 | 30725 ft | 485 kts | 48° |
| 2026-05-06 14:52 | 18.45885 | -100.14555 | 31122 ft | 484 kts | 48° |
| 2026-05-06 14:52 | 18.48136 | -100.11922 | 31536 ft | 484 kts | 48° |
| 2026-05-06 14:52 | 18.50387 | -100.09288 | 31937 ft | 483 kts | 48° |
| 2026-05-06 14:52 | 18.52632 | -100.06662 | 32365 ft | 482 kts | 48° |
| 2026-05-06 14:53 | 18.54873 | -100.04041 | 32792 ft | 481 kts | 48° |
| 2026-05-06 14:53 | 18.57108 | -100.01424 | 33233 ft | 480 kts | 48° |
| 2026-05-06 14:53 | 18.59340 | -99.98809 | 33679 ft | 479 kts | 48° |
| 2026-05-06 14:53 | 18.61565 | -99.96198 | 34114 ft | 478 kts | 48° |
| 2026-05-06 14:54 | 18.63789 | -99.93590 | 34492 ft | 478 kts | 48° |
| 2026-05-06 14:54 | 18.66008 | -99.90989 | 34849 ft | 477 kts | 48° |
| 2026-05-06 14:54 | 18.68228 | -99.88384 | 34976 ft | 478 kts | 48° |
| 2026-05-06 14:55 | 18.72708 | -99.83184 | 35038 ft | 479 kts | 44° |
| 2026-05-06 14:55 | 18.77830 | -99.78695 | 34748 ft | 479 kts | 38° |
| 2026-05-06 14:55 | 18.80531 | -99.76615 | 33909 ft | 482 kts | 34° |
| 2026-05-06 14:56 | 18.83310 | -99.74633 | 32610 ft | 483 kts | 33° |
| 2026-05-06 14:56 | 18.86125 | -99.72701 | 31377 ft | 482 kts | 32° |
| 2026-05-06 14:56 | 18.88951 | -99.70797 | 30224 ft | 481 kts | 32° |
| 2026-05-06 14:56 | 18.91771 | -99.68905 | 28892 ft | 478 kts | 32° |
| 2026-05-06 14:57 | 18.94562 | -99.67018 | 27627 ft | 475 kts | 33° |
| 2026-05-06 14:57 | 18.97322 | -99.65133 | 26407 ft | 470 kts | 34° |
| 2026-05-06 14:57 | 19.00048 | -99.63255 | 25284 ft | 466 kts | 34° |
| 2026-05-06 14:57 | 19.02745 | -99.61388 | 24254 ft | 461 kts | 35° |
| 2026-05-06 14:58 | 19.05376 | -99.59566 | 23152 ft | 456 kts | 35° |
| 2026-05-06 14:58 | 19.08010 | -99.57742 | 21971 ft | 449 kts | 34° |
| 2026-05-06 14:58 | 19.10598 | -99.55951 | 20922 ft | 440 kts | 34° |
| 2026-05-06 14:58 | 19.13109 | -99.54215 | 20331 ft | 422 kts | 34° |
| 2026-05-06 14:59 | 19.15522 | -99.52550 | 19774 ft | 406 kts | 34° |
| 2026-05-06 14:59 | 19.17843 | -99.50947 | 19252 ft | 391 kts | 34° |
| 2026-05-06 14:59 | 19.20114 | -99.49376 | 18786 ft | 390 kts | 34° |
| 2026-05-06 14:59 | 19.22376 | -99.47810 | 18223 ft | 387 kts | 34° |
| 2026-05-06 15:00 | 19.24618 | -99.46256 | 17308 ft | 383 kts | 34° |
| 2026-05-06 15:00 | 19.26833 | -99.44724 | 16719 ft | 379 kts | 35° |
| 2026-05-06 15:00 | 19.29032 | -99.43201 | 16155 ft | 377 kts | 35° |
| 2026-05-06 15:00 | 19.31214 | -99.41687 | 15569 ft | 374 kts | 35° |
| 2026-05-06 15:01 | 19.33390 | -99.40178 | 14992 ft | 373 kts | 34° |
| 2026-05-06 15:01 | 19.35552 | -99.38681 | 14386 ft | 371 kts | 34° |
| 2026-05-06 15:01 | 19.37717 | -99.37184 | 13570 ft | 371 kts | 34° |
| 2026-05-06 15:01 | 19.39870 | -99.35697 | 12977 ft | 368 kts | 34° |
| 2026-05-06 15:02 | 19.42005 | -99.34219 | 12392 ft | 366 kts | 34° |
| 2026-05-06 15:02 | 19.44132 | -99.32743 | 11799 ft | 364 kts | 34° |
| 2026-05-06 15:02 | 19.46237 | -99.31279 | 11331 ft | 359 kts | 34° |
| 2026-05-06 15:02 | 19.48274 | -99.29859 | 11257 ft | 340 kts | 34° |
| 2026-05-06 15:03 | 19.50147 | -99.28554 | 11172 ft | 314 kts | 34° |
| 2026-05-06 15:03 | 19.51911 | -99.27329 | 11051 ft | 293 kts | 33° |
| 2026-05-06 15:03 | 19.53558 | -99.26185 | 10933 ft | 274 kts | 34° |
| 2026-05-06 15:03 | 19.55098 | -99.25116 | 10812 ft | 257 kts | 34° |
| 2026-05-06 15:04 | 19.56550 | -99.24102 | 10700 ft | 245 kts | 36° |
| 2026-05-06 15:04 | 19.57836 | -99.22936 | 10590 ft | 243 kts | 46° |
| 2026-05-06 15:04 | 19.58955 | -99.21621 | 10486 ft | 236 kts | 50° |
| 2026-05-06 15:04 | 19.60008 | -99.20321 | 10386 ft | 229 kts | 50° |
| 2026-05-06 15:05 | 19.61039 | -99.19059 | 10291 ft | 225 kts | 49° |
| 2026-05-06 15:05 | 19.62060 | -99.17814 | 10193 ft | 220 kts | 49° |
| 2026-05-06 15:05 | 19.63017 | -99.16649 | 10107 ft | 198 kts | 49° |
| 2026-05-06 15:05 | 19.63864 | -99.15617 | 9846 ft | 176 kts | 49° |
| 2026-05-06 15:06 | 19.64647 | -99.14662 | 9468 ft | 166 kts | 50° |
| 2026-05-06 15:06 | 19.65393 | -99.13752 | 9224 ft | 162 kts | 49° |
| 2026-05-06 15:06 | 19.66125 | -99.12859 | 9015 ft | 160 kts | 49° |
| 2026-05-06 15:06 | 19.66849 | -99.11976 | 8924 ft | 159 kts | 49° |
| 2026-05-06 15:07 | 19.67575 | -99.11091 | 8836 ft | 159 kts | 49° |
| 2026-05-06 15:07 | 19.68301 | -99.10206 | 8729 ft | 159 kts | 49° |
| 2026-05-06 15:07 | 19.69027 | -99.09319 | 8741 ft | 158 kts | 49° |
| 2026-05-06 15:07 | 19.69752 | -99.08434 | 8602 ft | 160 kts | 48° |
| 2026-05-06 15:08 | 19.70482 | -99.07543 | 8300 ft | 159 kts | 48° |
| 2026-05-06 15:08 | 19.71205 | -99.06661 | 8003 ft | 158 kts | 48° |
| 2026-05-06 15:08 | 19.71948 | -99.05755 | 7784 ft | 173 kts | 49° |
| 2026-05-06 15:08 | 19.72769 | -99.04752 | 7529 ft | 182 kts | 49° |
| 2026-05-06 15:09 | 19.73546 | -99.03804 | 7368 ft | 154 kts | 49° |
| 2026-05-06 15:09 | 19.74032 | -99.03212 | 7360 ft | 40 kts | 49° |
| 2026-05-06 15:09 | 19.74068 | -99.03160 | 7360 ft | 14 kts | 75° |
| 2026-05-06 15:09 | 19.73999 | -99.03056 | 7363 ft | 0 kts | 136° |